Rivers, Canada
Current Conditions -  °F | °C
As of 11:00 AM on Friday 31 Oct 2014 (Local Time) from CYBR Reporting Station
Broken Clouds Broken Clouds  
Wind Chill: 19°   Ceiling: 25000
Heat Index: 28°   Visibility: 15mi
Dew Point: 19°   Wind: 10mph
Humidity: 69%   Direction: 180°S
Pressure: 30.46"   Gusts: NA
Location:  50.03°N, 100.22°W
Report Text: CYBR 311600Z 18009KT 15SM BKN250 M02/M07 A3046 RMK CI6 SLP345
Loading
Personal Weather Stations






























Interactive Weather Map New forecast layout! Learn more

10-Day Weather Forecast

Advertisements
Track Severe Weather on mobile